createdAt,value
2023-02-28T00:00:32.955Z,3.92
2023-02-28T00:01:35.736Z,4.20
2023-02-28T00:02:39.194Z,4.57
2023-02-28T00:03:41.858Z,4.95
2023-02-28T00:04:44.735Z,5.70
2023-02-28T00:05:47.365Z,4.13
2023-02-28T00:06:49.758Z,4.72
2023-02-28T00:07:52.282Z,3.63
2023-02-28T00:08:54.802Z,3.53
2023-02-28T00:09:57.683Z,3.97
2023-02-28T00:11:05.364Z,4.35
2023-02-28T00:12:11.155Z,5.20
2023-02-28T00:13:14.365Z,4.30
2023-02-28T00:14:16.892Z,4.03
2023-02-28T00:15:19.893Z,4.07
2023-02-28T00:16:23.591Z,4.75
2023-02-28T00:17:26.127Z,4.80
2023-02-28T00:18:31.112Z,4.95
2023-02-28T00:19:33.928Z,5.10
2023-02-28T00:20:36.337Z,4.88
2023-02-28T00:21:41.850Z,5.35
2023-02-28T00:22:47.137Z,4.80
2023-02-28T00:23:49.684Z,4.75
2023-02-28T00:24:52.175Z,5.10
2023-02-28T00:25:55.055Z,4.88
2023-02-28T00:26:57.579Z,5.95
2023-02-28T00:27:59.975Z,4.85
2023-02-28T00:29:02.509Z,5.05
2023-02-28T00:30:06.342Z,5.20
2023-02-28T00:31:08.966Z,4.82
2023-02-28T00:32:11.544Z,4.80
2023-02-28T00:33:14.256Z,4.95
2023-02-28T00:34:16.793Z,5.50
2023-02-28T00:35:19.423Z,4.43
2023-02-28T00:36:21.950Z,4.25
2023-02-28T00:37:24.581Z,4.47
2023-02-28T00:38:26.984Z,4.32
2023-02-28T00:39:29.864Z,4.32
2023-02-28T00:40:32.862Z,4.10
2023-02-28T00:41:35.385Z,4.40
2023-02-28T00:42:37.903Z,3.88
2023-02-28T00:43:41.068Z,4.57
2023-02-28T00:44:43.562Z,4.40
2023-02-28T00:45:47.778Z,4.20
2023-02-28T00:46:50.154Z,4.47
2023-02-28T00:47:52.669Z,4.50
2023-02-28T00:48:55.430Z,4.03
2023-02-28T00:49:57.950Z,3.80
2023-02-28T00:51:00.712Z,3.90
2023-02-28T00:52:03.238Z,3.15
2023-02-28T00:53:05.753Z,3.92
2023-02-28T00:54:08.166Z,4.13
2023-02-28T00:55:11.032Z,4.35
2023-02-28T00:56:13.562Z,3.38
2023-02-28T00:57:16.073Z,3.78
2023-02-28T00:58:18.594Z,4.10
2023-02-28T00:59:21.233Z,3.95
2023-02-28T01:00:23.958Z,3.80
2023-02-28T01:01:26.800Z,3.97
2023-02-28T01:02:29.408Z,3.75
2023-02-28T01:03:31.919Z,3.85
2023-02-28T01:04:34.603Z,3.90
2023-02-28T01:05:37.443Z,3.28
2023-02-28T01:06:40.082Z,4.10
2023-02-28T01:07:42.484Z,3.92
2023-02-28T01:08:45.122Z,4.13
2023-02-28T01:09:47.640Z,5.55
2023-02-28T01:10:50.521Z,4.00
2023-02-28T01:11:53.047Z,3.40
2023-02-28T01:12:55.565Z,4.00
2023-02-28T01:13:58.443Z,3.47
2023-02-28T01:15:00.870Z,3.53
2023-02-28T01:16:03.509Z,4.15
2023-02-28T01:17:06.726Z,3.97
2023-02-28T01:18:09.255Z,4.22
2023-02-28T01:19:12.249Z,4.43
2023-02-28T01:20:15.019Z,5.57
2023-02-28T01:21:19.334Z,4.28
2023-02-28T01:22:21.853Z,4.18
2023-02-28T01:23:25.472Z,4.07
2023-02-28T01:24:27.978Z,3.50
2023-02-28T01:25:30.862Z,5.18
2023-02-28T01:26:33.390Z,3.95
2023-02-28T01:27:36.858Z,3.55
2023-02-28T01:28:39.373Z,3.78
2023-02-28T01:29:42.020Z,3.75
2023-02-28T01:30:50.026Z,4.15
2023-02-28T01:31:52.908Z,4.38
2023-02-28T01:32:56.177Z,3.60
2023-02-28T01:33:58.703Z,3.50
2023-02-28T01:35:04.700Z,3.58
2023-02-28T01:36:19.099Z,4.43
2023-02-28T01:37:21.500Z,3.55
2023-02-28T01:38:24.047Z,3.53
2023-02-28T01:39:27.397Z,3.13
2023-02-28T01:40:30.042Z,3.50
2023-02-28T01:41:34.702Z,4.55
2023-02-28T01:42:37.222Z,3.42
2023-02-28T01:43:45.511Z,2.97
2023-02-28T01:45:26.912Z,4.25
2023-02-28T01:46:29.333Z,3.10
2023-02-28T01:47:37.348Z,3.40
2023-02-28T01:48:48.263Z,5.20
2023-02-28T01:51:02.425Z,3.58
2023-02-28T01:52:05.074Z,3.55
2023-02-28T01:53:11.682Z,3.20
2023-02-28T01:54:19.232Z,4.00
2023-02-28T01:55:24.386Z,3.60
2023-02-28T01:56:31.239Z,3.40
2023-02-28T01:57:38.911Z,3.10
2023-02-28T01:58:41.551Z,4.65
2023-02-28T01:59:53.577Z,4.60
2023-02-28T02:00:56.071Z,3.80
2023-02-28T02:01:58.623Z,3.70
2023-02-28T02:03:09.991Z,4.70
2023-02-28T02:04:12.633Z,3.95
2023-02-28T02:05:20.685Z,4.10
2023-02-28T02:06:41.552Z,4.03
2023-02-28T02:07:49.840Z,3.50
2023-02-28T02:08:53.552Z,4.03
2023-02-28T02:10:25.837Z,4.28
2023-02-28T02:11:30.908Z,4.32
2023-02-28T02:12:57.159Z,4.10
2023-02-28T02:14:30.766Z,4.10
2023-02-28T02:15:57.783Z,4.13
2023-02-28T02:17:14.319Z,3.80
2023-02-28T02:18:47.682Z,3.67
2023-02-28T02:20:37.011Z,4.32
2023-02-28T02:22:03.530Z,4.18
2023-02-28T02:23:33.431Z,4.28
2023-02-28T02:24:48.645Z,4.20
2023-02-28T02:25:59.692Z,4.47
2023-02-28T02:27:13.967Z,5.78
2023-02-28T02:28:41.212Z,4.50
2023-02-28T02:30:14.455Z,4.18
2023-02-28T02:31:41.603Z,4.65
2023-02-28T02:32:56.210Z,5.00
2023-02-28T02:34:20.454Z,4.43
2023-02-28T02:35:30.815Z,4.57
2023-02-28T02:36:55.133Z,4.25
2023-02-28T02:38:38.575Z,5.10
2023-02-28T02:40:03.664Z,5.47
2023-02-28T02:41:24.058Z,4.60
2023-02-28T02:42:44.823Z,4.57
2023-02-28T02:43:47.218Z,4.22
2023-02-28T02:44:57.055Z,4.72
2023-02-28T02:46:20.749Z,5.00
2023-02-28T02:47:26.590Z,4.50
2023-02-28T02:48:33.421Z,5.28
2023-02-28T02:49:39.308Z,4.55
2023-02-28T02:50:47.824Z,3.85
2023-02-28T02:51:53.100Z,4.20
2023-02-28T02:53:01.505Z,4.32
2023-02-28T02:54:09.086Z,4.13
2023-02-28T02:55:14.231Z,5.38
2023-02-28T02:56:20.769Z,4.80
2023-02-28T02:57:36.443Z,5.63
2023-02-28T02:58:43.334Z,3.80
2023-02-28T02:59:46.176Z,5.95
2023-02-28T03:00:54.233Z,4.57
2023-02-28T03:02:02.111Z,4.53
2023-02-28T03:03:07.994Z,4.70
2023-02-28T03:04:17.714Z,4.22
2023-02-28T03:05:46.032Z,4.50
2023-02-28T03:06:49.036Z,5.97
2023-02-28T03:07:51.437Z,5.25
2023-02-28T03:08:54.678Z,5.03
2023-02-28T03:09:59.236Z,5.45
2023-02-28T03:11:04.408Z,5.18
2023-02-28T03:12:14.126Z,4.45
2023-02-28T03:13:25.903Z,4.78
2023-02-28T03:14:42.689Z,5.80
2023-02-28T03:16:12.589Z,5.03
2023-02-28T03:17:49.061Z,5.15
2023-02-28T03:19:12.931Z,5.20
2023-02-28T03:20:33.684Z,5.47
2023-02-28T03:21:50.127Z,4.80
2023-02-28T03:23:14.373Z,5.07
2023-02-28T03:24:31.406Z,4.85
2023-02-28T03:25:48.572Z,5.05
2023-02-28T03:27:24.571Z,4.68
2023-02-28T03:28:43.068Z,5.07
2023-02-28T03:30:07.416Z,5.47
2023-02-28T03:31:30.357Z,5.57
2023-02-28T03:33:06.574Z,5.38
2023-02-28T03:34:25.667Z,4.70
2023-02-28T03:35:40.113Z,6.22
2023-02-28T03:36:49.018Z,5.07
2023-02-28T03:37:55.301Z,5.07
2023-02-28T03:39:06.590Z,5.18
2023-02-28T03:40:14.384Z,5.35
2023-02-28T03:41:24.709Z,6.00
2023-02-28T03:42:30.706Z,5.32
2023-02-28T03:43:38.999Z,5.72
2023-02-28T03:44:49.906Z,5.80
2023-02-28T03:45:53.779Z,4.88
2023-02-28T03:47:03.952Z,4.80
2023-02-28T03:48:32.892Z,5.85
2023-02-28T03:49:44.634Z,5.45
2023-02-28T03:50:50.407Z,5.30
2023-02-28T03:51:55.313Z,5.30
2023-02-28T03:53:08.199Z,5.03
2023-02-28T03:54:17.150Z,4.97
2023-02-28T03:55:20.872Z,6.53
2023-02-28T03:56:32.036Z,5.20
2023-02-28T03:57:52.327Z,4.97
2023-02-28T03:58:54.726Z,5.20
2023-02-28T04:00:32.899Z,4.70
2023-02-28T04:01:40.234Z,4.75
2023-02-28T04:02:43.324Z,4.82
2023-02-28T04:03:46.315Z,5.97
2023-02-28T04:04:50.676Z,5.47
2023-02-28T04:05:56.398Z,5.03
2023-02-28T04:07:12.977Z,5.47
2023-02-28T04:08:15.480Z,4.70
2023-02-28T04:09:18.360Z,5.47
2023-02-28T04:10:21.242Z,4.65
2023-02-28T04:11:43.460Z,5.10
2023-02-28T04:12:45.964Z,6.25
2023-02-28T04:13:49.450Z,4.57
2023-02-28T04:14:52.087Z,4.97
2023-02-28T04:15:54.659Z,5.15
2023-02-28T04:16:57.246Z,4.75
2023-02-28T04:17:59.773Z,4.60
2023-02-28T04:19:06.867Z,4.90
2023-02-28T04:20:10.824Z,4.60
2023-02-28T04:21:13.716Z,5.15
2023-02-28T04:22:18.260Z,5.50
2023-02-28T04:23:20.769Z,4.63
2023-02-28T04:24:27.733Z,5.30
2023-02-28T04:25:30.132Z,5.68
2023-02-28T04:26:37.335Z,4.30
2023-02-28T04:27:39.733Z,5.53
2023-02-28T04:28:42.253Z,4.75
2023-02-28T04:29:45.653Z,4.90
2023-02-28T04:30:48.375Z,4.45
2023-02-28T04:31:51.112Z,4.95
2023-02-28T04:32:53.782Z,5.78
2023-02-28T04:33:56.444Z,5.97
2023-02-28T04:34:58.937Z,5.22
2023-02-28T04:36:08.426Z,5.25
2023-02-28T04:37:13.797Z,5.30
2023-02-28T04:38:16.581Z,4.82
2023-02-28T04:39:19.581Z,4.47
2023-02-28T04:40:21.987Z,5.25
2023-02-28T04:41:24.859Z,5.20
2023-02-28T04:42:27.748Z,5.40
2023-02-28T04:43:31.474Z,5.60
2023-02-28T04:44:34.139Z,5.28
2023-02-28T04:45:36.667Z,5.60
2023-02-28T04:46:39.277Z,4.38
2023-02-28T04:47:41.802Z,4.80
2023-02-28T04:48:45.388Z,6.00
2023-02-28T04:49:47.906Z,5.47
2023-02-28T04:50:50.424Z,6.20
2023-02-28T04:51:53.950Z,6.40
2023-02-28T04:52:57.508Z,5.45
2023-02-28T04:54:00.029Z,5.18
2023-02-28T04:55:02.794Z,5.25
2023-02-28T04:56:05.670Z,5.45
2023-02-28T04:57:08.188Z,5.57
2023-02-28T04:58:10.952Z,5.68
2023-02-28T04:59:13.354Z,5.63
2023-02-28T05:00:17.798Z,4.97
2023-02-28T05:01:30.735Z,5.57
2023-02-28T05:02:36.484Z,5.55
2023-02-28T05:03:41.675Z,6.28
2023-02-28T05:04:44.328Z,4.93
2023-02-28T05:05:46.835Z,6.25
2023-02-28T05:06:49.352Z,6.25
2023-02-28T05:07:51.879Z,5.03
2023-02-28T05:08:54.395Z,4.32
2023-02-28T05:09:57.046Z,6.53
2023-02-28T05:11:01.718Z,5.40
2023-02-28T05:12:04.380Z,4.90
2023-02-28T05:13:06.809Z,5.43
2023-02-28T05:14:14.201Z,5.78
2023-02-28T05:15:18.041Z,5.90
2023-02-28T05:16:21.368Z,4.70
2023-02-28T05:17:23.812Z,6.15
2023-02-28T05:18:26.322Z,5.63
2023-02-28T05:19:29.206Z,5.60
2023-02-28T05:20:31.726Z,5.88
2023-02-28T05:21:39.286Z,5.35
2023-02-28T05:22:42.776Z,6.20
2023-02-28T05:23:46.830Z,5.63
2023-02-28T05:24:50.446Z,4.68
2023-02-28T05:25:53.929Z,5.10
2023-02-28T05:26:56.686Z,6.05
2023-02-28T05:27:59.211Z,6.22
2023-02-28T05:29:01.731Z,6.30
2023-02-28T05:30:05.458Z,5.90
2023-02-28T05:31:11.963Z,4.85
2023-02-28T05:32:14.481Z,6.10
2023-02-28T05:33:16.980Z,4.55
2023-02-28T05:34:19.518Z,5.50
2023-02-28T05:35:22.019Z,5.40
2023-02-28T05:36:24.898Z,4.50
2023-02-28T05:37:27.414Z,5.03
2023-02-28T05:38:29.933Z,5.28
2023-02-28T05:39:32.455Z,5.68
2023-02-28T05:40:34.976Z,5.53
2023-02-28T05:41:37.493Z,5.47
2023-02-28T05:42:40.134Z,4.70
2023-02-28T05:43:42.787Z,5.68
2023-02-28T05:44:45.295Z,5.90
2023-02-28T05:45:47.725Z,5.40
2023-02-28T05:46:50.252Z,5.13
2023-02-28T05:47:56.706Z,5.32
2023-02-28T05:49:01.276Z,6.82
2023-02-28T05:50:05.239Z,4.78
2023-02-28T05:51:09.072Z,5.70
2023-02-28T05:52:11.823Z,5.40
2023-02-28T05:53:14.348Z,5.32
2023-02-28T05:54:16.746Z,5.53
2023-02-28T05:55:19.511Z,5.72
2023-02-28T05:56:21.915Z,5.30
2023-02-28T05:57:25.053Z,5.18
2023-02-28T05:58:31.815Z,6.20
2023-02-28T05:59:34.513Z,4.78
2023-02-28T06:00:37.152Z,5.07
2023-02-28T06:01:40.757Z,5.20
2023-02-28T06:02:43.285Z,5.05
2023-02-28T06:03:45.749Z,4.82
2023-02-28T06:04:48.197Z,5.13
2023-02-28T06:05:51.557Z,5.20
2023-02-28T06:06:54.323Z,4.78
2023-02-28T06:07:56.730Z,5.60
2023-02-28T06:08:59.356Z,4.97
2023-02-28T06:10:01.882Z,4.47
2023-02-28T06:11:05.244Z,4.43
2023-02-28T06:12:10.400Z,4.75
2023-02-28T06:13:13.941Z,4.53
2023-02-28T06:14:19.283Z,4.80
2023-02-28T06:15:22.068Z,4.65
2023-02-28T06:16:25.492Z,5.03
2023-02-28T06:17:28.048Z,5.35
2023-02-28T06:18:30.334Z,4.60
2023-02-28T06:19:33.089Z,4.22
2023-02-28T06:20:37.365Z,5.20
2023-02-28T06:21:39.926Z,5.03
2023-02-28T06:22:42.459Z,5.63
2023-02-28T06:23:45.095Z,4.55
2023-02-28T06:24:47.730Z,4.78
2023-02-28T06:25:50.730Z,4.70
2023-02-28T06:26:53.266Z,4.25
2023-02-28T06:27:56.513Z,4.80
2023-02-28T06:28:59.137Z,5.00
2023-02-28T06:30:01.657Z,4.43
2023-02-28T06:31:12.349Z,4.30
2023-02-28T06:32:14.911Z,5.10
2023-02-28T06:33:17.499Z,5.70
2023-02-28T06:34:19.908Z,4.53
2023-02-28T06:35:22.602Z,5.10
2023-02-28T06:36:25.302Z,4.78
2023-02-28T06:37:27.946Z,4.95
2023-02-28T06:38:30.938Z,4.47
2023-02-28T06:39:33.583Z,4.63
2023-02-28T06:40:36.824Z,4.45
2023-02-28T06:41:53.651Z,4.28
2023-02-28T06:42:57.467Z,3.85
2023-02-28T06:44:00.261Z,4.38
2023-02-28T06:45:05.654Z,4.63
2023-02-28T06:46:10.032Z,3.92
2023-02-28T06:47:13.186Z,4.25
2023-02-28T06:48:15.991Z,4.13
2023-02-28T06:49:18.837Z,4.15
2023-02-28T06:50:21.600Z,3.92
2023-02-28T06:51:25.464Z,4.13
2023-02-28T06:52:28.190Z,3.75
2023-02-28T06:53:30.713Z,4.00
2023-02-28T06:54:33.110Z,4.43
2023-02-28T06:55:35.513Z,3.72
2023-02-28T06:56:38.274Z,4.82
2023-02-28T06:57:40.919Z,3.50
2023-02-28T06:58:46.700Z,3.97
2023-02-28T06:59:50.517Z,4.72
2023-02-28T07:00:53.775Z,3.47
2023-02-28T07:01:56.433Z,5.28
2023-02-28T07:02:58.800Z,4.05
2023-02-28T07:04:01.684Z,4.03
2023-02-28T07:05:07.439Z,3.97
2023-02-28T07:06:09.961Z,3.28
2023-02-28T07:07:12.596Z,3.58
2023-02-28T07:08:15.000Z,4.88
2023-02-28T07:09:17.515Z,4.72
2023-02-28T07:10:20.593Z,4.25
2023-02-28T07:11:26.840Z,3.78
2023-02-28T07:12:29.294Z,4.18
2023-02-28T07:13:31.806Z,4.80
2023-02-28T07:14:34.920Z,3.58
2023-02-28T07:15:41.190Z,3.70
2023-02-28T07:16:46.633Z,3.30
2023-02-28T07:17:49.203Z,2.95
2023-02-28T07:18:54.140Z,3.88
2023-02-28T07:19:56.651Z,3.15
2023-02-28T07:20:59.407Z,3.47
2023-02-28T07:22:03.868Z,3.50
2023-02-28T07:23:06.366Z,3.33
2023-02-28T07:24:09.366Z,4.50
2023-02-28T07:25:11.766Z,3.90
2023-02-28T07:26:16.685Z,3.25
2023-02-28T07:27:26.761Z,3.30
2023-02-28T07:28:29.286Z,3.42
2023-02-28T07:29:31.814Z,2.90
2023-02-28T07:30:34.336Z,3.67
2023-02-28T07:31:36.904Z,3.25
2023-02-28T07:32:39.255Z,3.05
2023-02-28T07:33:42.029Z,3.03
2023-02-28T07:34:44.531Z,3.10
2023-02-28T07:35:47.070Z,2.72
2023-02-28T07:36:49.813Z,3.10
2023-02-28T07:37:52.581Z,3.08
2023-02-28T07:38:55.138Z,3.13
2023-02-28T07:39:57.623Z,2.40
2023-02-28T07:41:00.138Z,3.15
2023-02-28T07:42:07.344Z,2.55
2023-02-28T07:43:09.861Z,2.25
2023-02-28T07:44:13.233Z,2.22
2023-02-28T07:45:15.748Z,2.45
2023-02-28T07:46:19.515Z,2.60
2023-02-28T07:47:24.465Z,2.45
2023-02-28T07:48:27.768Z,2.38
2023-02-28T07:49:30.271Z,2.67
2023-02-28T07:50:32.914Z,2.55
2023-02-28T07:51:35.450Z,2.47
2023-02-28T07:52:39.156Z,2.90
2023-02-28T07:53:41.675Z,2.88
2023-02-28T07:54:44.192Z,2.17
2023-02-28T07:55:46.712Z,2.75
2023-02-28T07:56:49.246Z,2.97
2023-02-28T07:57:51.809Z,2.90
2023-02-28T07:58:54.283Z,3.60
2023-02-28T07:59:56.921Z,3.38
2023-02-28T08:01:07.008Z,3.38
2023-02-28T08:02:17.681Z,3.25
2023-02-28T08:03:21.640Z,3.33
2023-02-28T08:04:24.164Z,3.30
2023-02-28T08:05:26.693Z,3.75
2023-02-28T08:06:29.084Z,3.70
2023-02-28T08:07:31.604Z,3.72
2023-02-28T08:08:34.386Z,3.40
2023-02-28T08:09:36.887Z,3.70
2023-02-28T08:10:39.525Z,3.97
2023-02-28T08:11:42.047Z,3.30
2023-02-28T08:12:44.570Z,3.22
2023-02-28T08:13:47.094Z,3.45
2023-02-28T08:14:49.727Z,3.15
2023-02-28T08:15:52.169Z,3.28
2023-02-28T08:16:55.492Z,3.00
2023-02-28T08:17:58.133Z,3.53
2023-02-28T08:19:00.671Z,3.47
2023-02-28T08:20:03.176Z,3.40
2023-02-28T08:21:09.651Z,3.42
2023-02-28T08:22:12.171Z,3.13
2023-02-28T08:23:14.696Z,3.35
2023-02-28T08:24:17.214Z,3.10
2023-02-28T08:25:19.853Z,2.83
2023-02-28T08:26:22.389Z,3.33
2023-02-28T08:27:24.800Z,2.70
2023-02-28T08:28:27.696Z,2.60
2023-02-28T08:29:31.275Z,2.90
2023-02-28T08:30:33.897Z,2.63
2023-02-28T08:31:36.656Z,2.75
2023-02-28T08:32:39.661Z,2.60
2023-02-28T08:33:42.664Z,3.00
2023-02-28T08:34:46.984Z,3.08
2023-02-28T08:35:54.711Z,2.65
2023-02-28T08:36:57.181Z,3.00
2023-02-28T08:37:59.700Z,2.47
2023-02-28T08:39:02.461Z,2.90
2023-02-28T08:40:05.475Z,2.65
2023-02-28T08:41:11.717Z,2.67
2023-02-28T08:42:14.230Z,2.67
2023-02-28T08:43:16.751Z,2.70
2023-02-28T08:44:19.151Z,3.08
2023-02-28T08:45:21.667Z,2.80
2023-02-28T08:46:24.939Z,3.10
2023-02-28T08:47:27.667Z,2.60
2023-02-28T08:48:32.955Z,2.47
2023-02-28T08:49:35.614Z,2.58
2023-02-28T08:50:38.109Z,2.58
2023-02-28T08:51:40.509Z,2.40
2023-02-28T08:52:46.099Z,2.60
2023-02-28T08:53:50.533Z,2.53
2023-02-28T08:54:53.012Z,2.75
2023-02-28T08:56:05.961Z,2.72
2023-02-28T08:57:08.468Z,2.28
2023-02-28T08:58:10.999Z,2.50
2023-02-28T08:59:13.510Z,2.20
2023-02-28T09:00:16.164Z,2.55
2023-02-28T09:01:21.598Z,2.17
2023-02-28T09:02:24.071Z,2.40
2023-02-28T09:03:28.174Z,2.58
2023-02-28T09:04:32.157Z,2.35
2023-02-28T09:05:34.655Z,2.47
2023-02-28T09:06:37.281Z,2.15
2023-02-28T09:07:39.797Z,2.65
2023-02-28T09:08:42.557Z,2.38
2023-02-28T09:09:54.978Z,2.10
2023-02-28T09:10:59.760Z,1.95
2023-02-28T09:12:03.242Z,2.45
2023-02-28T09:13:07.398Z,2.60
2023-02-28T09:14:09.932Z,2.50
2023-02-28T09:15:12.443Z,2.28
2023-02-28T09:16:20.273Z,2.00
2023-02-28T09:17:22.758Z,2.42
2023-02-28T09:18:25.283Z,2.20
2023-02-28T09:19:27.802Z,2.15
2023-02-28T09:20:30.324Z,1.88
2023-02-28T09:21:32.921Z,1.88
2023-02-28T09:22:35.382Z,1.92
2023-02-28T09:23:39.329Z,2.13
2023-02-28T09:24:41.855Z,2.13
2023-02-28T09:25:52.886Z,2.00
2023-02-28T09:27:04.568Z,2.28
2023-02-28T09:28:07.892Z,1.65
2023-02-28T09:29:11.133Z,1.95
2023-02-28T09:30:14.502Z,1.67
2023-02-28T09:31:23.253Z,1.95
2023-02-28T09:32:25.826Z,1.20
2023-02-28T09:33:28.441Z,1.73
2023-02-28T09:34:33.695Z,1.55
2023-02-28T09:35:38.139Z,1.50
2023-02-28T09:36:46.002Z,1.77
2023-02-28T09:37:55.418Z,1.55
2023-02-28T09:38:58.327Z,1.80
2023-02-28T09:40:00.816Z,1.38
2023-02-28T09:41:12.722Z,1.38
2023-02-28T09:42:32.379Z,1.77
2023-02-28T09:43:39.585Z,1.40
2023-02-28T09:44:46.200Z,1.30
2023-02-28T09:46:03.377Z,1.40
2023-02-28T09:47:16.305Z,1.33
2023-02-28T09:48:26.385Z,1.75
2023-02-28T09:49:41.387Z,1.88
2023-02-28T09:50:49.667Z,1.48
2023-02-28T09:51:59.996Z,1.48
2023-02-28T09:53:13.066Z,1.83
2023-02-28T09:54:21.836Z,1.23
2023-02-28T09:55:52.564Z,1.13
2023-02-28T09:57:00.952Z,1.05
2023-02-28T09:58:03.616Z,1.45
2023-02-28T09:59:28.074Z,1.60
2023-02-28T10:00:37.555Z,1.30
2023-02-28T10:01:44.253Z,1.52
2023-02-28T10:02:50.179Z,1.23
2023-02-28T10:03:59.996Z,1.75
2023-02-28T10:05:15.836Z,1.63
2023-02-28T10:06:20.884Z,1.42
2023-02-28T10:07:35.282Z,1.17
2023-02-28T10:09:02.560Z,1.50
2023-02-28T10:10:16.344Z,1.08
2023-02-28T10:11:21.845Z,0.98
2023-02-28T10:12:27.122Z,1.45
2023-02-28T10:13:59.041Z,1.70
2023-02-28T10:15:03.490Z,1.77
2023-02-28T10:16:28.952Z,1.35
2023-02-28T10:17:54.911Z,1.20
2023-02-28T10:19:27.127Z,1.42
2023-02-28T10:20:32.526Z,1.50
2023-02-28T10:21:47.414Z,1.50
2023-02-28T10:23:11.052Z,1.17
2023-02-28T10:24:26.891Z,1.30
2023-02-28T10:25:30.729Z,1.63
2023-02-28T10:26:34.342Z,1.40
2023-02-28T10:27:36.858Z,1.50
2023-02-28T10:28:41.202Z,1.40
2023-02-28T10:29:52.335Z,1.40
2023-02-28T10:30:56.017Z,1.25
2023-02-28T10:32:02.306Z,1.55
2023-02-28T10:33:04.877Z,1.25
2023-02-28T10:34:08.538Z,1.50
2023-02-28T10:35:11.177Z,1.55
2023-02-28T10:36:19.980Z,1.30
2023-02-28T10:37:22.818Z,1.23
2023-02-28T10:38:28.839Z,1.38
2023-02-28T10:39:40.479Z,1.48
2023-02-28T10:40:42.985Z,1.42
2023-02-28T10:41:45.622Z,1.70
2023-02-28T10:43:03.042Z,1.45
2023-02-28T10:44:16.835Z,1.10
2023-02-28T10:45:19.346Z,1.30
2023-02-28T10:46:27.994Z,1.30
2023-02-28T10:47:31.233Z,1.15
2023-02-28T10:49:04.469Z,1.33
2023-02-28T10:50:07.227Z,1.23
2023-02-28T10:51:12.774Z,1.33
2023-02-28T10:52:33.630Z,1.60
2023-02-28T10:53:57.528Z,1.55
2023-02-28T10:55:26.320Z,1.35
2023-02-28T10:56:30.142Z,1.40
2023-02-28T10:57:33.631Z,1.17
2023-02-28T10:58:54.037Z,1.45
2023-02-28T11:00:20.192Z,1.40
2023-02-28T11:01:31.875Z,1.40
2023-02-28T11:02:39.417Z,1.50
2023-02-28T11:03:42.032Z,1.10
2023-02-28T11:04:44.468Z,1.30
2023-02-28T11:05:48.035Z,1.35
2023-02-28T11:07:01.843Z,1.63
2023-02-28T11:08:13.854Z,1.42
2023-02-28T11:09:25.434Z,1.20
2023-02-28T11:10:31.839Z,1.55
2023-02-28T11:11:45.421Z,1.20
2023-02-28T11:12:52.928Z,1.65
2023-02-28T11:14:05.327Z,1.50
2023-02-28T11:15:19.026Z,1.23
2023-02-28T11:16:22.269Z,1.10
2023-02-28T11:17:31.001Z,1.23
2023-02-28T11:18:39.168Z,1.63
2023-02-28T11:19:47.922Z,1.33
2023-02-28T11:20:55.972Z,1.17
2023-02-28T11:22:01.411Z,1.17
2023-02-28T11:23:06.171Z,1.35
2023-02-28T11:24:24.166Z,1.10
2023-02-28T11:25:39.299Z,1.42
2023-02-28T11:26:49.376Z,1.20
2023-02-28T11:27:58.967Z,1.15
2023-02-28T11:29:13.139Z,1.05
2023-02-28T11:30:32.684Z,1.13
2023-02-28T11:31:35.265Z,1.20
2023-02-28T11:32:38.527Z,1.40
2023-02-28T11:33:52.487Z,0.93
2023-02-28T11:35:11.213Z,0.93
2023-02-28T11:36:29.221Z,1.10
2023-02-28T11:37:33.670Z,1.13
2023-02-28T11:38:37.378Z,1.27
2023-02-28T11:39:40.017Z,1.00
2023-02-28T11:40:57.174Z,1.38
2023-02-28T11:42:36.894Z,1.20
2023-02-28T11:43:42.184Z,1.00
2023-02-28T11:45:19.018Z,1.40
2023-02-28T11:46:47.840Z,1.33
2023-02-28T11:48:17.218Z,0.90
2023-02-28T11:49:47.219Z,1.10
2023-02-28T11:51:16.656Z,1.20
2023-02-28T11:52:38.467Z,0.88
2023-02-28T11:53:52.270Z,1.30
2023-02-28T11:55:00.666Z,1.10
2023-02-28T11:56:40.505Z,1.33
2023-02-28T11:58:06.906Z,1.08
2023-02-28T11:59:45.918Z,1.17
2023-02-28T12:01:25.997Z,1.27
2023-02-28T12:02:38.153Z,0.95
2023-02-28T12:03:56.361Z,1.00
2023-02-28T12:05:16.399Z,1.00
2023-02-28T12:06:40.285Z,0.95
2023-02-28T12:07:51.080Z,1.15
2023-02-28T12:10:20.388Z,1.20
2023-02-28T12:11:49.302Z,1.63
2023-02-28T12:13:05.968Z,1.33
2023-02-28T12:14:29.745Z,1.35
2023-02-28T12:15:41.009Z,1.75
2023-02-28T12:16:49.899Z,1.27
2023-02-28T12:18:13.893Z,1.08
2023-02-28T12:19:29.250Z,1.15
2023-02-28T12:20:34.546Z,1.60
2023-02-28T12:21:42.694Z,1.05
2023-02-28T12:23:02.059Z,0.90
2023-02-28T12:24:38.141Z,1.63
2023-02-28T12:25:55.061Z,1.27
2023-02-28T12:27:01.899Z,1.23
2023-02-28T12:28:05.256Z,0.93
2023-02-28T12:29:16.417Z,1.10
2023-02-28T12:30:36.588Z,1.67
2023-02-28T12:31:50.530Z,1.48
2023-02-28T12:33:16.778Z,1.30
2023-02-28T12:34:24.584Z,1.52
2023-02-28T12:35:37.815Z,1.48
2023-02-28T12:36:45.355Z,0.90
2023-02-28T12:37:58.421Z,1.20
2023-02-28T12:39:19.663Z,1.40
2023-02-28T12:40:43.180Z,1.25
2023-02-28T12:42:05.505Z,1.40
2023-02-28T12:43:10.904Z,1.50
2023-02-28T12:44:23.025Z,1.10
2023-02-28T12:45:33.253Z,1.23
2023-02-28T12:46:42.554Z,1.45
2023-02-28T12:47:49.784Z,1.50
2023-02-28T12:48:57.706Z,1.45
2023-02-28T12:50:07.551Z,1.20
2023-02-28T12:51:11.289Z,1.30
2023-02-28T12:52:18.587Z,1.20
2023-02-28T12:54:06.254Z,1.50
2023-02-28T12:56:05.629Z,1.13
2023-02-28T12:57:17.396Z,1.48
2023-02-28T12:58:32.638Z,1.40
2023-02-28T12:59:44.276Z,1.50
2023-02-28T13:01:08.538Z,1.48
2023-02-28T13:02:26.261Z,1.75
2023-02-28T13:03:46.677Z,1.50
2023-02-28T13:05:07.445Z,1.45
2023-02-28T13:06:36.597Z,1.40
2023-02-28T13:08:05.427Z,1.50
2023-02-28T13:09:15.730Z,1.10
2023-02-28T13:10:19.953Z,1.30
2023-02-28T13:11:41.285Z,1.30
2023-02-28T13:12:52.580Z,1.20
2023-02-28T13:14:04.689Z,1.27
2023-02-28T13:15:22.398Z,1.02
2023-02-28T13:16:24.975Z,1.25
2023-02-28T13:17:27.486Z,1.20
2023-02-28T13:18:47.403Z,1.20
2023-02-28T13:19:55.826Z,1.20
2023-02-28T13:20:58.445Z,0.90
2023-02-28T13:22:02.523Z,1.00
2023-02-28T13:23:06.725Z,1.30
2023-02-28T13:24:10.091Z,1.65
2023-02-28T13:25:24.488Z,1.58
2023-02-28T13:26:38.666Z,1.25
2023-02-28T13:27:42.971Z,1.15
2023-02-28T13:29:16.937Z,1.30
2023-02-28T13:30:57.044Z,0.98
2023-02-28T13:32:09.515Z,0.82
2023-02-28T13:33:32.528Z,1.15
2023-02-28T13:34:40.337Z,0.98
2023-02-28T13:35:46.285Z,1.20
2023-02-28T13:36:48.853Z,1.17
2023-02-28T13:37:52.817Z,0.90
2023-02-28T13:39:22.097Z,1.40
2023-02-28T13:40:38.207Z,0.95
2023-02-28T13:41:46.942Z,0.98
2023-02-28T13:42:51.640Z,0.90
2023-02-28T13:44:04.953Z,1.00
2023-02-28T13:45:07.724Z,0.70
2023-02-28T13:46:13.723Z,1.42
2023-02-28T13:47:25.829Z,0.88
2023-02-28T13:48:30.626Z,0.95
2023-02-28T13:49:35.021Z,1.08
2023-02-28T13:50:39.107Z,1.13
2023-02-28T13:51:47.933Z,1.30
2023-02-28T13:53:02.308Z,0.98
2023-02-28T13:54:17.191Z,1.20
2023-02-28T13:55:30.041Z,1.27
2023-02-28T13:56:46.597Z,1.27
2023-02-28T13:57:51.757Z,1.00
2023-02-28T13:59:23.552Z,0.90
2023-02-28T14:01:01.901Z,1.20
2023-02-28T14:02:50.174Z,1.27
2023-02-28T14:03:58.596Z,1.00
2023-02-28T14:05:12.522Z,0.70
2023-02-28T14:06:33.650Z,0.70
2023-02-28T14:07:58.133Z,1.20
2023-02-28T14:09:04.981Z,1.20
2023-02-28T14:10:10.243Z,1.30
2023-02-28T14:11:28.019Z,0.88
2023-02-28T14:12:58.814Z,0.85
2023-02-28T14:14:03.287Z,1.10
2023-02-28T14:15:34.424Z,1.45
2023-02-28T14:17:54.286Z,0.70
2023-02-28T14:19:01.852Z,1.10
2023-02-28T14:20:04.731Z,1.02
2023-02-28T14:21:26.457Z,1.23
2023-02-28T14:23:03.891Z,1.65
2023-02-28T14:24:55.373Z,0.93
2023-02-28T14:26:22.171Z,1.05
2023-02-28T14:27:48.670Z,0.90
2023-02-28T14:29:11.211Z,1.15
2023-02-28T14:31:01.385Z,1.00
2023-02-28T14:32:40.976Z,1.13
2023-02-28T14:34:13.495Z,1.30
2023-02-28T14:35:57.557Z,1.23
2023-02-28T14:37:03.306Z,1.23
2023-02-28T14:38:19.022Z,1.10
2023-02-28T14:39:25.025Z,1.30
2023-02-28T14:40:36.310Z,1.25
2023-02-28T14:41:41.222Z,1.13
2023-02-28T14:43:02.101Z,1.60
2023-02-28T14:44:19.272Z,1.08
2023-02-28T14:45:22.995Z,1.25
2023-02-28T14:46:31.465Z,1.20
2023-02-28T14:47:36.307Z,1.50
2023-02-28T14:48:40.029Z,1.30
2023-02-28T14:49:47.844Z,1.30
2023-02-28T14:50:53.355Z,1.40
2023-02-28T14:52:16.400Z,1.17
2023-02-28T14:53:22.028Z,1.10
2023-02-28T14:54:25.760Z,1.02
2023-02-28T14:55:31.631Z,1.40
2023-02-28T14:56:41.340Z,1.10
2023-02-28T14:57:56.952Z,0.95
2023-02-28T14:58:59.492Z,1.20
2023-02-28T15:00:11.955Z,1.30
2023-02-28T15:01:22.298Z,1.40
2023-02-28T15:02:26.845Z,1.02
2023-02-28T15:03:36.556Z,1.42
2023-02-28T15:04:39.126Z,1.13
2023-02-28T15:05:41.600Z,1.27
2023-02-28T15:06:44.122Z,1.20
2023-02-28T15:07:47.479Z,1.52
2023-02-28T15:09:07.774Z,2.05
2023-02-28T15:10:26.117Z,1.05
2023-02-28T15:11:28.891Z,1.00
2023-02-28T15:12:31.527Z,0.90
2023-02-28T15:13:38.480Z,1.20
2023-02-28T15:14:44.973Z,1.35
2023-02-28T15:16:02.343Z,1.30
2023-02-28T15:17:16.046Z,1.55